Time;durP1;ratioP1;P1;durP2;ratioP2;P2;SDS_P1;SDS_P2;PMS_P1;PMS_P2;Temp;Humidity;BMP_temperature;BMP_pressure;BME280_temperature;BME280_humidity;BME280_pressure;Samples;Min_cycle;Max_cycle;Signal;HPM_P1;HPM_P2
2023/01/25 00:01:09;;;;;;;26.67;20.00;;;;;;;0.20;100.00;103879.88;4943911;29;20036;-80
2023/01/25 00:03:37;;;;;;;29.05;20.58;;;;;;;0.16;100.00;103870.91;4959449;28;20047;-81
2023/01/25 00:06:04;;;;;;;27.38;20.02;;;;;;;0.17;100.00;103877.00;4917980;28;20078;-81
2023/01/25 00:08:32;;;;;;;27.58;19.45;;;;;;;0.18;100.00;103876.22;4950978;29;20051;-81
2023/01/25 00:11:02;;;;;;;29.20;20.83;;;;;;;0.16;100.00;103867.41;4943468;29;20445;-81
2023/01/25 00:13:29;;;;;;;29.38;20.55;;;;;;;0.13;100.00;103869.69;4954524;29;20047;-80
2023/01/25 00:16:02;;;;;;;27.45;19.92;;;;;;;0.14;100.00;103855.97;4933753;29;20066;-80
2023/01/25 00:18:30;;;;;;;27.10;19.83;;;;;;;0.13;100.00;103860.25;4941265;28;20043;-80
2023/01/25 00:20:57;;;;;;;29.73;21.15;;;;;;;0.11;100.00;103851.38;4907585;28;20063;-81
2023/01/25 00:23:25;;;;;;;30.48;20.90;;;;;;;0.11;100.00;103853.06;4943472;29;20043;-80
2023/01/25 00:25:56;;;;;;;28.27;20.08;;;;;;;0.10;100.00;103840.91;4942127;29;20058;-81
2023/01/25 00:28:24;;;;;;;28.13;20.05;;;;;;;0.11;100.00;103840.13;4937852;29;20428;-80
2023/01/25 00:30:52;;;;;;;27.02;20.08;;;;;;;0.13;100.00;103842.09;4954063;28;20090;-80
2023/01/25 00:33:38;;;;;;;30.15;20.67;;;;;;;0.15;100.00;103834.44;4954224;28;20043;-81
2023/01/25 00:36:38;;;;;;;26.30;20.20;;;;;;;0.15;100.00;103834.44;4941996;28;20055;-81
2023/01/25 00:39:11;;;;;;;28.02;19.60;;;;;;;0.15;100.00;103821.47;4951525;28;20129;-81
2023/01/25 00:41:43;;;;;;;27.40;19.50;;;;;;;0.15;100.00;103822.41;4929967;29;20051;-80
2023/01/25 00:44:10;;;;;;;28.30;20.23;;;;;;;0.19;100.00;103826.19;4937318;29;20303;-81
2023/01/25 00:46:41;;;;;;;28.00;20.48;;;;;;;0.19;100.00;103824.50;4952297;28;20043;-81
2023/01/25 00:49:23;;;;;;;;;;;;;;;0.16;100.00;103828.50;4945246;28;20065;-81
2023/01/25 00:51:51;;;;;;;27.50;19.25;;;;;;;0.13;100.00;103823.00;4934921;28;19937;-80
2023/01/25 00:54:20;;;;;;;28.38;19.63;;;;;;;0.13;100.00;103818.75;4928956;28;20047;-81
2023/01/25 00:56:47;;;;;;;29.95;21.45;;;;;;;0.12;100.00;103818.63;4936522;28;20058;-81
2023/01/25 00:59:15;;;;;;;30.83;21.88;;;;;;;0.11;100.00;103809.00;4962691;28;20055;-81
2023/01/25 01:01:43;;;;;;;29.05;21.25;;;;;;;0.11;100.00;103814.19;4956959;28;20061;-81
2023/01/25 01:04:10;;;;;;;31.90;21.13;;;;;;;0.11;100.00;103809.91;4949070;28;20061;-81
2023/01/25 01:06:42;;;;;;;30.75;21.08;;;;;;;0.12;100.00;103810.84;4958027;28;20061;-81
2023/01/25 01:09:15;;;;;;;27.48;20.83;;;;;;;0.12;100.00;103797.88;4922829;28;20046;-82
2023/01/25 01:11:43;;;;;;;30.38;21.08;;;;;;;0.15;100.00;103805.91;4950468;28;20046;-80
2023/01/25 01:14:11;;;;;;;30.77;21.20;;;;;;;0.13;100.00;103798.00;4962450;28;20067;-82
2023/01/25 01:16:39;;;;;;;30.30;20.65;;;;;;;0.12;100.00;103795.28;4938103;28;20057;-81
2023/01/25 01:19:09;;;;;;;32.40;21.92;;;;;;;0.13;100.00;103791.91;4963654;28;20512;-81
2023/01/25 01:21:37;;;;;;;28.08;20.75;;;;;;;0.12;100.00;103792.69;4960204;28;20043;-81
2023/01/25 01:24:05;;;;;;;33.15;21.75;;;;;;;0.12;100.00;103795.28;4908542;28;20045;-81
2023/01/25 01:26:33;;;;;;;32.90;21.58;;;;;;;0.10;100.00;103789.94;4948122;28;20054;-80
2023/01/25 01:29:01;;;;;;;31.15;22.05;;;;;;;0.10;100.00;103799.41;4924320;28;20046;-80
2023/01/25 01:31:28;;;;;;;31.77;21.20;;;;;;;0.10;100.00;103797.72;4955872;28;20050;-80
2023/01/25 01:34:15;;;;;;;30.98;20.42;;;;;;;0.11;100.00;103803.81;4948561;28;20054;-81
2023/01/25 01:36:44;;;;;;;31.38;21.58;;;;;;;0.11;100.00;103788.25;4936029;28;20063;-80
2023/01/25 01:39:11;;;;;;;31.13;21.35;;;;;;;0.11;100.00;103801.22;4923989;28;20054;-81
2023/01/25 01:41:39;;;;;;;31.88;21.23;;;;;;;0.08;100.00;103798.34;4942388;28;20566;-81
2023/01/25 01:44:17;;;;;;;32.30;21.98;;;;;;;0.07;100.00;103797.41;4947570;28;20046;-80
2023/01/25 01:46:56;;;;;;;30.15;20.95;;;;;;;0.08;100.00;103788.88;4938438;28;20089;-80
2023/01/25 01:49:29;;;;;;;36.90;22.35;;;;;;;0.03;100.00;103784.03;4960797;28;20038;-80
2023/01/25 01:52:19;;;;;;;31.27;21.60;;;;;;;0.01;100.00;103780.41;4933064;28;20059;-81
2023/01/25 01:55:10;;;;;;;35.53;21.25;;;;;;;-0.02;100.00;103784.53;4917589;29;20501;-80
2023/01/25 01:57:46;;;;;;;32.55;20.52;;;;;;;-0.04;100.00;103778.28;4951724;28;20050;-80
2023/01/25 02:00:22;;;;;;;30.52;20.92;;;;;;;-0.06;100.00;103779.84;4936508;28;20054;-80
2023/01/25 02:02:50;;;;;;;34.55;21.42;;;;;;;-0.08;100.00;103780.44;4956268;28;20047;-80
2023/01/25 02:05:24;;;;;;;31.65;21.58;;;;;;;-0.08;100.00;103783.03;4951364;28;20058;-80
2023/01/25 02:07:54;;;;;;;37.42;22.92;;;;;;;-0.07;100.00;103770.22;4943640;29;20047;-80
2023/01/25 02:10:24;;;;;;;32.23;21.67;;;;;;;-0.12;100.00;103776.66;4935916;28;20047;-81
2023/01/25 02:12:57;;;;;;;38.58;21.42;;;;;;;-0.16;100.00;103771.03;4931832;28;20044;-80
2023/01/25 02:15:37;;;;;;;37.13;24.10;;;;;;;-0.19;100.00;103774.25;4931511;28;20051;-80
2023/01/25 02:18:04;;;;;;;36.22;23.85;;;;;;;-0.23;100.00;103775.66;4934754;28;20066;-80
2023/01/25 02:20:47;;;;;;;35.70;23.48;;;;;;;-0.23;100.00;103767.88;4945989;28;20509;-80
2023/01/25 02:23:28;;;;;;;34.95;21.92;;;;;;;-0.25;100.00;103765.91;4964365;28;20053;-80
2023/01/25 02:25:59;;;;;;;36.55;23.52;;;;;;;-0.29;100.00;103763.78;4945300;28;20555;-80
2023/01/25 02:28:38;;;;;;;34.05;23.02;;;;;;;-0.33;100.00;103756.50;4949050;28;20046;-82
2023/01/25 02:31:06;;;;;;;36.40;23.30;;;;;;;-0.36;100.00;103753.59;4937905;28;20066;-81
2023/01/25 02:33:33;;;;;;;39.17;24.67;;;;;;;-0.40;100.00;103757.59;4965167;28;20116;-81
2023/01/25 02:36:06;;;;;;;36.17;24.83;;;;;;;-0.40;100.00;103753.34;4955482;28;20059;-81
2023/01/25 02:38:36;;;;;;;38.72;23.33;;;;;;;-0.43;100.00;103740.09;4947770;28;20051;-81
2023/01/25 02:41:26;;;;;;;34.28;23.33;;;;;;;-0.43;100.00;103741.78;4907050;28;20054;-82
2023/01/25 02:43:54;;;;;;;36.95;23.80;;;;;;;-0.41;100.00;103737.66;4933152;29;20047;-82
2023/01/25 02:46:31;;;;;;;37.30;24.38;;;;;;;-0.40;100.00;103748.16;4938101;28;20051;-82
2023/01/25 02:49:02;;;;;;;38.58;24.20;;;;;;;-0.37;100.00;103742.34;4948147;29;20051;-81
2023/01/25 02:51:33;;;;;;;40.67;24.33;;;;;;;-0.38;100.00;103732.72;4935626;29;20055;-81
2023/01/25 02:54:02;;;;;;;40.10;24.40;;;;;;;-0.41;100.00;103728.19;4949440;28;20497;-81
2023/01/25 02:56:30;;;;;;;35.08;22.70;;;;;;;-0.45;100.00;103726.06;4930530;28;20680;-81
2023/01/25 02:58:58;;;;;;;35.50;22.60;;;;;;;-0.48;100.00;103728.38;4956424;28;20057;-81
2023/01/25 03:01:25;;;;;;;35.83;21.02;;;;;;;-0.49;100.00;103736.94;4945559;28;20069;-81
2023/01/25 03:03:53;;;;;;;36.80;23.27;;;;;;;-0.50;100.00;103735.09;4950496;28;20083;-81
2023/01/25 03:06:20;;;;;;;35.67;22.58;;;;;;;-0.49;100.00;103731.75;4936830;28;20409;-82
2023/01/25 03:08:48;;;;;;;37.20;23.15;;;;;;;-0.48;100.00;103727.47;4956019;28;20065;-81
2023/01/25 03:11:17;;;;;;;40.88;24.80;;;;;;;-0.45;100.00;103720.91;4935468;28;20051;-81
2023/01/25 03:13:45;;;;;;;35.28;22.70;;;;;;;-0.42;100.00;103715.06;4963768;28;20489;-81
2023/01/25 03:16:14;;;;;;;38.42;24.88;;;;;;;-0.40;100.00;103713.53;4944302;28;20054;-81
2023/01/25 03:18:43;;;;;;;36.55;23.77;;;;;;;-0.38;100.00;103711.09;4954820;28;20051;-82
2023/01/25 03:21:12;;;;;;;42.50;24.40;;;;;;;-0.39;100.00;103710.19;4933441;29;20497;-81
2023/01/25 03:23:42;;;;;;;37.83;23.75;;;;;;;-0.37;100.00;103712.94;4945929;28;20039;-82
2023/01/25 03:26:17;;;;;;;42.70;26.50;;;;;;;-0.36;100.00;103710.47;4920146;29;20408;-79
2023/01/25 03:29:05;;;;;;;43.25;25.80;;;;;;;-0.37;100.00;103707.75;4945610;29;20055;-79
2023/01/25 03:31:36;;;;;;;41.60;25.63;;;;;;;-0.38;100.00;103699.03;4925787;29;20059;-80
2023/01/25 03:34:04;;;;;;;45.33;28.15;;;;;;;-0.43;100.00;103703.81;4922648;28;20043;-79
2023/01/25 03:36:36;;;;;;;45.65;26.92;;;;;;;-0.43;100.00;103695.13;4937463;28;20058;-80
2023/01/25 03:39:04;;;;;;;43.35;27.05;;;;;;;-0.44;100.00;103685.53;4944089;28;20402;-80
2023/01/25 03:41:38;;;;;;;45.70;28.02;;;;;;;-0.48;100.00;103676.56;4916440;28;20067;-80
2023/01/25 03:44:10;;;;;;;43.20;26.88;;;;;;;-0.51;100.00;103672.75;4935377;28;20051;-80
2023/01/25 03:46:40;;;;;;;44.60;27.40;;;;;;;-0.53;100.00;103675.25;4951100;28;20060;-81
2023/01/25 03:49:09;;;;;;;43.10;27.38;;;;;;;-0.60;100.00;103673.72;4952881;28;20500;-80
2023/01/25 03:51:37;;;;;;;42.75;26.13;;;;;;;-0.62;100.00;103672.69;4952343;28;20089;-80
2023/01/25 03:54:04;;;;;;;40.38;25.17;;;;;;;-0.60;100.00;103665.06;4967913;28;20396;-80
2023/01/25 03:56:35;;;;;;;42.13;26.13;;;;;;;-0.61;100.00;103663.22;4936838;28;20042;-80
2023/01/25 03:59:11;;;;;;;46.38;28.45;;;;;;;-0.59;100.00;103666.88;4922100;28;20054;-79
2023/01/25 04:01:47;;;;;;;43.80;25.63;;;;;;;-0.60;100.00;103665.97;4953586;28;20050;-80
2023/01/25 04:04:15;;;;;;;47.22;28.20;;;;;;;-0.63;100.00;103660.47;4948466;28;20046;-80
2023/01/25 04:06:44;;;;;;;45.10;27.38;;;;;;;-0.60;100.00;103665.06;4936600;28;20066;-81
2023/01/25 04:09:13;;;;;;;50.80;29.40;;;;;;;-0.58;100.00;103658.34;4954511;28;20047;-80
2023/01/25 04:11:49;;;;;;;52.13;31.65;;;;;;;-0.55;100.00;103661.19;4944837;28;20083;-81
2023/01/25 04:14:17;;;;;;;47.88;29.08;;;;;;;-0.52;100.00;103660.59;4935698;28;20051;-80
2023/01/25 04:17:07;;;;;;;50.20;29.15;;;;;;;-0.52;100.00;103661.50;4963271;28;20508;-80
2023/01/25 04:19:41;;;;;;;50.63;29.23;;;;;;;-0.53;100.00;103659.69;4960786;28;20062;-80
2023/01/25 04:22:12;;;;;;;47.40;28.20;;;;;;;-0.52;100.00;103660.59;4937249;29;20393;-80
2023/01/25 04:24:40;;;;;;;48.67;29.75;;;;;;;-0.52;100.00;103661.50;4961155;28;20059;-80
2023/01/25 04:27:09;;;;;;;48.70;29.60;;;;;;;-0.48;100.00;103658.41;4945708;28;20590;-80
2023/01/25 04:29:48;;;;;;;47.97;29.80;;;;;;;-0.46;100.00;103659.47;4935638;28;20055;-80
2023/01/25 04:32:19;;;;;;;51.10;29.90;;;;;;;-0.46;100.00;103656.88;4944850;28;20826;-80
2023/01/25 04:34:46;;;;;;;48.00;28.63;;;;;;;-0.42;100.00;103653.84;4918530;29;20058;-81
2023/01/25 04:37:18;;;;;;;48.47;30.13;;;;;;;-0.46;100.00;103656.88;4941941;28;20058;-80
2023/01/25 04:39:55;;;;;;;46.50;26.98;;;;;;;-0.51;100.00;103649.44;4941910;28;20050;-80
2023/01/25 04:42:25;;;;;;;51.25;29.40;;;;;;;-0.50;100.00;103646.09;4943459;29;20043;-81
2023/01/25 04:44:55;;;;;;;49.55;29.02;;;;;;;-0.50;100.00;103640.91;4914700;29;20505;-80
2023/01/25 04:47:26;;;;;;;44.72;27.90;;;;;;;-0.53;100.00;103631.19;4950006;28;20051;-80
2023/01/25 04:49:53;;;;;;;50.13;28.52;;;;;;;-0.52;100.00;103634.69;4953707;28;20043;-80
2023/01/25 04:52:23;;;;;;;48.40;29.52;;;;;;;-0.52;100.00;103627.81;4935779;28;20058;-80
2023/01/25 04:54:51;;;;;;;49.25;30.13;;;;;;;-0.53;100.00;103630.25;4955865;29;20044;-80
2023/01/25 04:57:20;;;;;;;46.75;28.63;;;;;;;-0.56;100.00;103622.22;4915344;28;20043;-80
2023/01/25 04:59:51;;;;;;;46.97;28.40;;;;;;;-0.63;100.00;103618.13;4936650;28;20063;-80
2023/01/25 05:02:21;;;;;;;50.72;29.48;;;;;;;-0.67;100.00;103619.53;4917123;28;20531;-80
2023/01/25 05:04:48;;;;;;;51.20;28.98;;;;;;;-0.68;100.00;103622.91;4948226;28;20047;-80
2023/01/25 05:07:17;;;;;;;46.95;28.08;;;;;;;-0.69;100.00;103625.34;4922625;28;20050;-80
2023/01/25 05:09:45;;;;;;;53.13;28.90;;;;;;;-0.69;100.00;103623.66;4944992;29;20073;-80
2023/01/25 05:12:12;;;;;;;50.22;29.35;;;;;;;-0.66;100.00;103621.38;4930473;28;20055;-80
2023/01/25 05:15:01;;;;;;;50.63;29.70;;;;;;;-0.69;100.00;103628.84;4924747;28;20035;-80
2023/01/25 05:17:29;;;;;;;52.42;30.20;;;;;;;-0.69;100.00;103634.03;4940175;28;20062;-80
2023/01/25 05:19:56;;;;;;;50.53;28.13;;;;;;;-0.69;100.00;103641.78;4934978;28;20493;-80
2023/01/25 05:22:24;;;;;;;50.65;29.75;;;;;;;-0.68;100.00;103638.44;4905147;28;20058;-79
2023/01/25 05:24:52;;;;;;;51.45;29.50;;;;;;;-0.64;100.00;103643.13;4951445;28;20058;-80
2023/01/25 05:27:20;;;;;;;56.80;32.67;;;;;;;-0.61;100.00;103639.91;4927410;28;20094;-80
2023/01/25 05:29:55;;;;;;;55.15;30.15;;;;;;;-0.60;100.00;103627.13;4973375;28;20058;-81
2023/01/25 05:32:41;;;;;;;56.10;30.15;;;;;;;-0.59;100.00;103633.19;4944707;28;20062;-80
2023/01/25 05:35:10;;;;;;;53.20;30.85;;;;;;;-0.62;100.00;103632.94;4942050;28;20039;-80
2023/01/25 05:37:38;;;;;;;50.72;30.08;;;;;;;-0.61;100.00;103627.88;4927040;28;20069;-80
2023/01/25 05:40:13;;;;;;;59.50;32.83;;;;;;;-0.61;100.00;103625.28;4936549;28;20055;-80
2023/01/25 05:42:40;;;;;;;56.15;31.83;;;;;;;-0.63;100.00;103625.91;4913827;28;20066;-79
2023/01/25 05:45:15;;;;;;;50.85;29.63;;;;;;;-0.63;100.00;103620.72;4936067;28;20768;-79
2023/01/25 05:47:45;;;;;;;57.72;31.15;;;;;;;-0.63;100.00;103619.03;4918470;28;20051;-80
2023/01/25 05:50:12;;;;;;;57.75;31.98;;;;;;;-0.67;100.00;103614.34;4929731;28;20055;-80
2023/01/25 05:52:49;;;;;;;52.78;30.48;;;;;;;-0.66;100.00;103615.25;4920749;28;20057;-81
2023/01/25 05:55:17;;;;;;;60.63;32.40;;;;;;;-0.66;100.00;103612.66;4947567;29;20127;-80
2023/01/25 05:57:45;;;;;;;62.08;32.75;;;;;;;-0.65;100.00;103617.09;4949020;28;20055;-80
2023/01/25 06:00:14;;;;;;;62.63;33.05;;;;;;;-0.69;100.00;103620.16;4943085;28;20051;-80
2023/01/25 06:02:41;;;;;;;58.63;32.88;;;;;;;-0.71;100.00;103622.59;4920968;28;20398;-80
2023/01/25 06:05:14;;;;;;;63.97;33.22;;;;;;;-0.74;100.00;103621.41;4942352;28;20067;-79
2023/01/25 06:07:42;;;;;;;62.53;33.45;;;;;;;-0.80;100.00;103619.16;4932025;28;20055;-80
2023/01/25 06:10:11;;;;;;;57.22;31.98;;;;;;;-0.81;100.00;103620.84;4925380;28;20047;-80
2023/01/25 06:12:39;;;;;;;66.18;34.72;;;;;;;-0.81;100.00;103618.25;4937385;29;20397;-80
2023/01/25 06:15:07;;;;;;;65.97;33.60;;;;;;;-0.83;100.00;103609.44;4939562;28;20050;-80
2023/01/25 06:17:36;;;;;;;63.28;34.08;;;;;;;-0.85;100.00;103610.03;4941991;28;20621;-79
2023/01/25 06:20:16;;;;;;;70.57;35.67;;;;;;;-0.87;100.00;103607.34;4943055;28;20496;-80
2023/01/25 06:22:57;;;;;;;;;;;;;;;-0.89;100.00;103607.94;4926276;28;20055;-79
2023/01/25 06:25:24;;;;;;;68.88;34.80;;;;;;;-0.90;100.00;103612.22;4978612;28;19929;-81
2023/01/25 06:27:54;;;;;;;60.20;32.08;;;;;;;-0.91;100.00;103605.19;4949391;29;20055;-80
2023/01/25 06:30:21;;;;;;;69.72;34.95;;;;;;;-0.86;100.00;103600.47;4956412;28;20070;-81
2023/01/25 06:32:49;;;;;;;61.72;33.05;;;;;;;-0.90;100.00;103604.44;4938582;29;20500;-80
2023/01/25 06:35:16;;;;;;;64.15;33.30;;;;;;;-0.97;100.00;103596.84;4930499;28;20039;-81
2023/01/25 06:37:44;;;;;;;62.88;34.05;;;;;;;-1.01;100.00;103592.16;4959641;28;20047;-81
2023/01/25 06:40:13;;;;;;;65.30;33.58;;;;;;;-1.04;100.00;103589.28;4911816;28;20047;-80
2023/01/25 06:42:41;;;;;;;61.47;32.63;;;;;;;-1.05;100.00;103595.25;4966262;28;20047;-81
2023/01/25 06:45:10;;;;;;;63.17;33.40;;;;;;;-1.08;100.00;103593.25;4937562;28;20031;-80
2023/01/25 06:47:40;;;;;;;59.97;31.00;;;;;;;-1.11;100.00;103603.34;4941802;28;20065;-81
2023/01/25 06:50:09;;;;;;;64.05;32.53;;;;;;;-1.12;100.00;103616.13;4933870;28;20046;-79
2023/01/25 06:52:37;;;;;;;61.15;33.22;;;;;;;-1.15;100.00;103609.00;4918763;28;20058;-81
2023/01/25 06:55:06;;;;;;;67.28;33.70;;;;;;;-1.14;100.00;103607.31;4917914;28;20055;-81
2023/01/25 06:57:34;;;;;;;65.78;34.35;;;;;;;-1.12;100.00;103609.25;4949950;28;20874;-81
2023/01/25 07:00:02;;;;;;;62.40;34.17;;;;;;;-1.08;100.00;103602.69;4946218;28;20711;-80
2023/01/25 07:02:29;;;;;;;66.22;34.75;;;;;;;-1.07;100.00;103600.25;4925348;28;20062;-80
2023/01/25 07:05:00;;;;;;;65.20;35.83;;;;;;;-1.05;100.00;103588.38;4948511;28;21688;-80
2023/01/25 07:07:28;;;;;;;67.22;34.55;;;;;;;-1.03;100.00;103593.69;4917183;28;20540;-81
2023/01/25 07:09:55;;;;;;;66.15;35.72;;;;;;;-1.02;100.00;103579.97;4940206;28;20051;-81
2023/01/25 07:12:24;;;;;;;63.80;35.85;;;;;;;-1.00;100.00;103583.66;4909455;28;20050;-80
2023/01/25 07:14:52;;;;;;;65.80;34.58;;;;;;;-1.00;100.00;103581.97;4937816;28;20042;-77
2023/01/25 07:17:20;;;;;;;63.17;33.80;;;;;;;-1.01;100.00;103581.81;4920217;28;20059;-79
2023/01/25 07:19:48;;;;;;;66.13;36.40;;;;;;;-1.04;100.00;103584.09;4938892;29;20054;-80
2023/01/25 07:22:16;;;;;;;62.95;35.45;;;;;;;-1.04;100.00;103584.09;4905913;28;20063;-78
2023/01/25 07:24:48;;;;;;;67.07;34.22;;;;;;;-1.05;100.00;103590.06;4918400;28;20058;-81
2023/01/25 07:27:16;;;;;;;66.13;35.40;;;;;;;-1.07;100.00;103596.78;4926714;28;20051;-79
2023/01/25 07:29:43;;;;;;;63.33;33.58;;;;;;;-1.05;100.00;103590.97;4938109;28;20043;-79
2023/01/25 07:32:13;;;;;;;66.43;34.10;;;;;;;-1.06;100.00;103593.41;4932676;28;20046;-79
2023/01/25 07:34:40;;;;;;;69.85;37.10;;;;;;;-1.10;100.00;103588.72;4943242;28;20050;-79
2023/01/25 07:37:09;;;;;;;63.30;34.70;;;;;;;-1.13;100.00;103579.00;4915899;28;20540;-79
2023/01/25 07:39:37;;;;;;;70.47;35.08;;;;;;;-1.18;100.00;103580.22;4939933;28;20081;-79
2023/01/25 07:42:04;;;;;;;64.05;34.42;;;;;;;-1.21;100.00;103569.56;4922723;28;20054;-79
2023/01/25 07:44:33;;;;;;;65.72;35.67;;;;;;;-1.24;100.00;103571.88;4938177;28;20066;-79
2023/01/25 07:47:12;;;;;;;66.40;36.13;;;;;;;-1.26;100.00;103576.00;4924079;28;20054;-77
2023/01/25 07:49:41;;;;;;;71.40;37.72;;;;;;;-1.26;100.00;103570.84;4936915;28;20527;-79
2023/01/25 07:52:08;;;;;;;67.15;36.72;;;;;;;-1.27;100.00;103567.31;4930783;28;20051;-78
2023/01/25 07:54:36;;;;;;;70.40;37.05;;;;;;;-1.25;100.00;103563.22;4913563;28;20058;-81
2023/01/25 07:57:03;;;;;;;73.85;38.58;;;;;;;-1.25;100.00;103558.06;4938320;28;20043;-80
2023/01/25 07:59:32;;;;;;;70.57;37.63;;;;;;;-1.20;100.00;103561.06;4911871;28;20051;-80
2023/01/25 08:01:59;;;;;;;64.68;34.60;;;;;;;-1.16;100.00;103554.50;4935381;28;20055;-80
2023/01/25 08:04:26;;;;;;;66.32;34.58;;;;;;;-1.12;100.00;103556.59;4956833;28;20519;-80
2023/01/25 08:06:55;;;;;;;69.63;37.20;;;;;;;-1.11;100.00;103558.44;4934878;28;20043;-80
2023/01/25 08:09:22;;;;;;;68.80;35.25;;;;;;;-1.13;100.00;103547.94;4941437;29;20547;-80
2023/01/25 08:11:52;;;;;;;66.18;34.75;;;;;;;-1.13;100.00;103547.03;4918512;28;20058;-80
2023/01/25 08:14:19;;;;;;;73.05;36.67;;;;;;;-1.09;100.00;103543.97;4936724;28;20059;-81
2023/01/25 08:16:46;;;;;;;70.40;36.05;;;;;;;-1.10;100.00;103544.72;4957414;28;20039;-78
2023/01/25 08:19:14;;;;;;;75.10;38.72;;;;;;;-1.13;100.00;103550.53;4955889;28;20059;-78
2023/01/25 08:21:42;;;;;;;74.88;41.47;;;;;;;-1.10;100.00;103552.47;4927824;28;20424;-80
2023/01/25 08:24:09;;;;;;;73.80;36.78;;;;;;;-1.12;100.00;103543.66;4932452;28;20051;-80
2023/01/25 08:26:37;;;;;;;68.50;35.67;;;;;;;-1.15;100.00;103546.88;4945441;28;20055;-80
2023/01/25 08:29:05;;;;;;;63.60;35.55;;;;;;;-1.19;100.00;103534.44;4940676;28;20043;-79
2023/01/25 08:31:33;;;;;;;67.45;36.25;;;;;;;-1.18;100.00;103531.06;4913352;28;20412;-79
2023/01/25 08:34:03;;;;;;;74.80;40.13;;;;;;;-1.16;100.00;103526.03;4940497;28;20067;-79
2023/01/25 08:36:30;;;;;;;66.45;36.25;;;;;;;-1.18;100.00;103521.59;4926391;28;20051;-80
2023/01/25 08:39:00;;;;;;;65.40;35.63;;;;;;;-1.16;100.00;103523.44;4920031;28;20059;-80
2023/01/25 08:41:32;;;;;;;69.32;34.13;;;;;;;-1.17;100.00;103514.78;4921510;28;20046;-80
2023/01/25 08:44:00;;;;;;;66.65;35.22;;;;;;;-1.16;100.00;103507.91;4956476;28;20047;-79
2023/01/25 08:46:32;;;;;;;65.85;33.33;;;;;;;-1.17;100.00;103509.59;4938411;28;20041;-79
2023/01/25 08:49:01;;;;;;;63.25;32.63;;;;;;;-1.19;100.00;103514.63;4981669;28;20058;-79
2023/01/25 08:51:31;;;;;;;63.35;33.03;;;;;;;-1.19;100.00;103500.78;4947479;28;20047;-80
2023/01/25 08:54:04;;;;;;;63.83;33.05;;;;;;;-1.22;100.00;103491.03;4932830;28;20097;-80
2023/01/25 08:56:35;;;;;;;64.50;33.50;;;;;;;-1.25;100.00;103501.13;4960560;28;20038;-80
2023/01/25 08:59:02;;;;;;;64.43;34.22;;;;;;;-1.26;100.00;103501.88;4928862;29;20066;-80
2023/01/25 09:01:30;;;;;;;65.40;32.55;;;;;;;-1.28;100.00;103503.41;4925505;28;20046;-79
2023/01/25 09:03:59;;;;;;;65.60;33.17;;;;;;;-1.27;100.00;103501.72;4957614;28;20057;-79
2023/01/25 09:06:26;;;;;;;60.75;32.28;;;;;;;-1.25;100.00;103495.94;4943728;28;20049;-79
2023/01/25 09:08:54;;;;;;;64.93;33.15;;;;;;;-1.27;100.00;103500.03;4901076;28;20500;-79
2023/01/25 09:11:24;;;;;;;65.03;34.47;;;;;;;-1.24;100.00;103495.16;4934808;28;20526;-79
2023/01/25 09:13:52;;;;;;;;;;;;;;;-1.21;100.00;103494.53;4895786;29;20059;-80
2023/01/25 09:16:27;;;;;;;57.47;31.88;;;;;;;-1.21;100.00;103503.22;4898987;29;20321;-80
2023/01/25 09:19:02;;;;;;;61.85;34.17;;;;;;;-1.23;100.00;103507.34;4863458;29;20810;-79
2023/01/25 09:21:29;;;;;;;63.55;33.60;;;;;;;-1.19;100.00;103499.09;4903619;29;20059;-79
2023/01/25 09:23:58;;;;;;;59.70;33.53;;;;;;;-1.21;100.00;103491.94;4851315;29;20052;-78
2023/01/25 09:26:38;;;;;;;62.95;34.00;;;;;;;-1.27;100.00;103494.88;4877569;29;20040;-80
2023/01/25 09:29:07;;;;;;;64.28;33.47;;;;;;;-1.24;100.00;103486.50;4895539;29;20085;-81
2023/01/25 09:31:38;;;;;;;57.33;33.30;;;;;;;-1.32;100.00;103492.63;4871017;29;20391;-80
2023/01/25 09:34:08;;;;;;;57.95;31.67;;;;;;;-1.36;100.00;103496.63;4874622;29;20178;-78
2023/01/25 09:36:37;;;;;;;53.88;30.40;;;;;;;-1.39;100.00;103493.72;4902238;29;20071;-79
2023/01/25 09:39:04;;;;;;;54.78;29.95;;;;;;;-1.41;100.00;103493.59;4887582;29;20108;-81
2023/01/25 09:41:31;;;;;;;53.70;29.85;;;;;;;-1.43;100.00;103481.28;4878113;29;20082;-80
2023/01/25 09:44:23;;;;;;;50.15;28.90;;;;;;;-1.47;100.00;103476.59;4887279;29;20063;-80
2023/01/25 09:46:59;;;;;;;51.38;29.58;;;;;;;-1.45;100.00;103488.00;4879234;29;20056;-80
2023/01/25 09:50:00;;;;;;;49.92;29.08;;;;;;;-1.49;100.00;103491.03;4884873;29;20518;-78
2023/01/25 09:52:46;;;;;;;;;;;;;;;-1.52;100.00;103485.59;4905731;29;20058;-79
2023/01/25 09:55:21;;;;;;;51.38;29.00;;;;;;;-1.49;100.00;103472.91;4926394;29;19930;-79
2023/01/25 09:57:52;;;;;;;55.78;30.75;;;;;;;-1.49;100.00;103470.34;4931098;29;20523;-79
2023/01/25 10:00:27;;;;;;;51.78;28.88;;;;;;;-1.50;100.00;103472.03;4918880;28;20052;-79
2023/01/25 10:03:24;;;;;;;50.10;27.90;;;;;;;-1.50;100.00;103471.13;4879553;29;20063;-80
2023/01/25 10:06:00;;;;;;;47.38;28.08;;;;;;;-1.51;100.00;103466.69;4940785;29;20051;-79
2023/01/25 10:08:50;;;;;;;55.17;29.95;;;;;;;-1.54;100.00;103469.91;4950518;29;20043;-80
2023/01/25 10:11:26;;;;;;;49.83;28.75;;;;;;;-1.56;100.00;103450.75;4922433;29;20846;-79
2023/01/25 10:13:55;;;;;;;50.08;27.67;;;;;;;-1.55;100.00;103459.41;4930688;28;20106;-79
2023/01/25 10:16:30;;;;;;;51.88;29.40;;;;;;;-1.56;100.00;103445.59;4929934;29;20039;-79
2023/01/25 10:19:19;;;;;;;53.50;31.58;;;;;;;-1.55;100.00;103442.25;4908136;28;20057;-79
2023/01/25 10:22:34;;;;;;;52.35;30.45;;;;;;;-1.51;100.00;103456.34;4921955;29;20512;-79
2023/01/25 10:25:23;;;;;;;49.25;28.05;;;;;;;-1.54;100.00;103433.72;4914125;29;20074;-79
2023/01/25 10:27:56;;;;;;;49.50;27.77;;;;;;;-1.56;100.00;103414.56;4933860;29;20048;-81
2023/01/25 10:30:24;;;;;;;53.83;29.75;;;;;;;-1.59;100.00;103407.44;4940441;29;20070;-79
2023/01/25 10:32:55;;;;;;;54.88;30.70;;;;;;;-1.59;100.00;103410.03;4918175;29;20051;-81
2023/01/25 10:35:28;;;;;;;52.20;30.60;;;;;;;-1.57;100.00;103404.97;4915210;28;20047;-82
2023/01/25 10:38:17;;;;;;;51.72;29.58;;;;;;;-1.54;100.00;103406.94;4932306;28;20185;-81
2023/01/25 10:40:55;;;;;;;57.17;30.98;;;;;;;-1.56;100.00;103409.38;4919969;29;20056;-80
2023/01/25 10:43:23;;;;;;;52.85;30.85;;;;;;;-1.57;100.00;103400.72;4933888;28;20055;-81
2023/01/25 10:45:50;;;;;;;54.47;29.45;;;;;;;-1.57;100.00;103395.56;4937364;29;20051;-81
2023/01/25 10:48:25;;;;;;;54.85;31.13;;;;;;;-1.56;100.00;103386.13;4951800;28;20035;-81
2023/01/25 10:50:56;;;;;;;54.78;31.15;;;;;;;-1.49;100.00;103374.66;4908267;28;20062;-81
2023/01/25 10:53:29;;;;;;;57.92;31.10;;;;;;;-1.44;100.00;103376.88;4936499;29;20406;-81
2023/01/25 10:55:59;;;;;;;61.63;33.45;;;;;;;-1.38;100.00;103368.78;4938600;29;20062;-81
2023/01/25 10:58:55;;;;;;;55.08;30.65;;;;;;;-1.33;100.00;103354.59;4930299;29;20055;-81
2023/01/25 11:01:27;;;;;;;63.15;33.35;;;;;;;-1.28;100.00;103345.59;4933028;29;20493;-81
2023/01/25 11:03:56;;;;;;;61.92;32.42;;;;;;;-1.23;100.00;103339.19;4937499;29;20837;-81
2023/01/25 11:06:33;;;;;;;58.88;32.88;;;;;;;-1.19;100.00;103337.78;4924026;29;20508;-81
2023/01/25 11:09:21;;;;;;;58.17;31.75;;;;;;;-1.10;100.00;103341.16;4936539;29;20062;-79
2023/01/25 11:11:56;;;;;;;56.70;32.30;;;;;;;-1.04;100.00;103327.88;4942896;28;20051;-79
2023/01/25 11:14:26;;;;;;;58.63;31.50;;;;;;;-0.99;100.00;103329.19;4922736;28;20047;-77
2023/01/25 11:16:56;;;;;;;57.42;31.20;;;;;;;-0.95;100.00;103320.94;4934828;28;20051;-80
2023/01/25 11:19:34;;;;;;;59.80;32.40;;;;;;;-0.91;100.00;103319.53;4926253;29;20628;-79
2023/01/25 11:22:38;;;;;;;56.63;31.73;;;;;;;-0.88;100.00;103310.38;4929386;29;20661;-79
2023/01/25 11:25:34;;;;;;;60.72;30.98;;;;;;;-0.86;100.00;103306.22;4914505;29;20055;-80